createdAt,value
2018-01-19T00:01:43.291Z,93.60
2018-01-19T00:04:11.619Z,93.60
2018-01-19T00:06:39.319Z,93.60
2018-01-19T00:09:06.884Z,93.70
2018-01-19T00:11:34.420Z,93.60
2018-01-19T00:14:02.981Z,93.70
2018-01-19T00:16:31.279Z,93.70
2018-01-19T00:18:58.940Z,93.70
2018-01-19T00:21:26.636Z,93.80
2018-01-19T00:23:54.948Z,93.90
2018-01-19T00:26:22.417Z,93.90
2018-01-19T00:28:50.011Z,94.10
2018-01-19T00:31:17.578Z,94.00
2018-01-19T00:33:45.085Z,94.00
2018-01-19T00:36:13.403Z,94.20
2018-01-19T00:38:40.936Z,94.10
2018-01-19T00:41:08.461Z,94.00
2018-01-19T00:43:36.011Z,93.80
2018-01-19T00:46:03.577Z,93.60
2018-01-19T00:48:31.103Z,93.50
2018-01-19T00:50:58.668Z,93.30
2018-01-19T00:53:26.240Z,93.40
2018-01-19T00:55:54.572Z,92.40
2018-01-19T00:58:22.131Z,92.40
2018-01-19T01:00:49.659Z,92.60
2018-01-19T01:03:17.204Z,92.60
2018-01-19T01:05:45.059Z,93.00
2018-01-19T01:08:12.591Z,92.50
2018-01-19T01:10:40.155Z,92.60
2018-01-19T01:13:07.715Z,93.10
2018-01-19T01:15:35.258Z,93.10
2018-01-19T01:18:03.588Z,93.20
2018-01-19T01:20:31.299Z,93.20
2018-01-19T01:22:58.823Z,92.80
2018-01-19T01:25:26.366Z,92.50
2018-01-19T01:27:53.980Z,92.60
2018-01-19T01:30:21.445Z,92.60
2018-01-19T01:32:49.767Z,92.40
2018-01-19T01:35:17.327Z,92.40
2018-01-19T01:37:44.895Z,92.30
2018-01-19T01:40:13.228Z,92.40
2018-01-19T01:42:42.460Z,92.40
2018-01-19T01:45:09.986Z,92.40
2018-01-19T01:47:38.283Z,92.30
2018-01-19T01:50:06.084Z,92.30
2018-01-19T01:52:34.379Z,92.30
2018-01-19T01:55:02.311Z,92.30
2018-01-19T01:57:29.904Z,92.20
2018-01-19T01:59:57.428Z,92.30
2018-01-19T02:02:24.955Z,92.70
2018-01-19T02:04:52.746Z,92.30
2018-01-19T02:07:20.271Z,92.70
2018-01-19T02:09:47.919Z,92.60
2018-01-19T02:12:15.466Z,92.80
2018-01-19T02:14:43.006Z,93.00
2018-01-19T02:17:10.551Z,92.70
2018-01-19T02:19:38.122Z,92.30
2018-01-19T02:22:05.807Z,92.30
2018-01-19T02:24:33.335Z,92.20
2018-01-19T02:27:01.661Z,92.00
2018-01-19T02:29:29.187Z,92.00
2018-01-19T02:31:56.661Z,91.90
2018-01-19T02:34:24.138Z,92.30
2018-01-19T02:36:51.663Z,92.10
2018-01-19T02:39:19.996Z,92.40
2018-01-19T02:41:47.856Z,92.40
2018-01-19T02:44:16.198Z,92.40
2018-01-19T02:46:43.760Z,92.40
2018-01-19T02:49:11.356Z,92.40
2018-01-19T02:51:38.924Z,92.90
2018-01-19T02:54:06.488Z,93.00
2018-01-19T02:56:34.196Z,92.70
2018-01-19T02:59:01.766Z,92.90
2018-01-19T03:01:29.324Z,93.20
2018-01-19T03:03:57.109Z,93.30
2018-01-19T03:06:24.643Z,93.30
2018-01-19T03:08:52.194Z,93.20
2018-01-19T03:11:20.760Z,93.00
2018-01-19T03:13:48.319Z,93.00
2018-01-19T03:16:15.893Z,93.30
2018-01-19T03:18:43.625Z,93.60
2018-01-19T03:21:11.177Z,93.30
2018-01-19T03:23:38.880Z,93.30
2018-01-19T03:26:07.192Z,93.30
2018-01-19T03:28:34.723Z,93.20
2018-01-19T03:31:02.284Z,93.20
2018-01-19T03:33:29.843Z,93.00
2018-01-19T03:35:57.405Z,92.90
2018-01-19T03:38:24.927Z,92.20
2018-01-19T03:40:52.484Z,92.40
2018-01-19T03:43:20.053Z,92.40
2018-01-19T03:45:48.384Z,91.40
2018-01-19T03:48:16.123Z,91.40
2018-01-19T03:50:43.688Z,91.10
2018-01-19T03:53:11.255Z,90.70
2018-01-19T03:55:39.604Z,91.20
2018-01-19T03:58:07.895Z,91.70
2018-01-19T04:00:35.462Z,91.70
2018-01-19T04:03:03.044Z,91.50
2018-01-19T04:05:30.571Z,91.30
2018-01-19T04:07:58.099Z,91.70
2018-01-19T04:10:25.643Z,91.90
2018-01-19T04:12:53.178Z,91.40
2018-01-19T04:15:20.707Z,91.60
2018-01-19T04:17:48.420Z,91.60
2018-01-19T04:20:16.723Z,91.60
2018-01-19T04:22:44.288Z,91.60
2018-01-19T04:25:12.045Z,91.80
2018-01-19T04:27:39.608Z,91.80
2018-01-19T04:30:07.269Z,91.60
2018-01-19T04:32:35.801Z,91.10
2018-01-19T04:35:03.331Z,91.10
2018-01-19T04:37:30.871Z,91.10
2018-01-19T04:39:58.460Z,90.80
2018-01-19T04:42:26.812Z,90.90
2018-01-19T04:44:54.373Z,90.80
2018-01-19T04:47:22.921Z,90.60
2018-01-19T04:49:50.485Z,90.60
2018-01-19T04:52:18.781Z,91.00
2018-01-19T04:54:46.332Z,91.00
2018-01-19T04:57:13.863Z,91.50
2018-01-19T04:59:41.419Z,91.60
2018-01-19T05:02:09.009Z,91.50
2018-01-19T05:04:37.299Z,92.10
2018-01-19T05:07:04.874Z,91.70
2018-01-19T05:09:32.523Z,91.90
2018-01-19T05:12:00.086Z,92.10
2018-01-19T05:14:27.614Z,92.10
2018-01-19T05:16:55.170Z,92.70
2018-01-19T05:19:22.632Z,92.90
2018-01-19T05:21:50.134Z,93.10
2018-01-19T05:24:17.793Z,93.40
2018-01-19T05:26:45.420Z,93.60
2018-01-19T05:29:12.942Z,93.30
2018-01-19T05:31:40.499Z,92.90
2018-01-19T05:34:08.056Z,93.20
2018-01-19T05:36:35.623Z,93.40
2018-01-19T05:39:03.307Z,93.30
2018-01-19T05:41:31.636Z,91.80
2018-01-19T05:43:59.167Z,91.80
2018-01-19T05:46:26.733Z,91.90
2018-01-19T05:48:55.076Z,91.50
2018-01-19T05:51:22.615Z,91.50
2018-01-19T05:53:50.244Z,91.30
2018-01-19T05:56:17.812Z,90.80
2018-01-19T05:58:46.111Z,90.90
2018-01-19T06:01:14.635Z,90.20
2018-01-19T06:03:42.192Z,90.20
2018-01-19T06:06:09.802Z,90.50
2018-01-19T06:08:37.577Z,91.00
2018-01-19T06:11:06.657Z,90.60
2018-01-19T06:13:34.129Z,90.60
2018-01-19T06:16:02.644Z,90.80
2018-01-19T06:18:30.196Z,90.80
2018-01-19T06:20:57.760Z,90.60
2018-01-19T06:23:25.356Z,90.60
2018-01-19T06:25:52.893Z,90.60
2018-01-19T06:28:20.461Z,90.50
2018-01-19T06:30:48.064Z,90.70
2018-01-19T06:33:16.363Z,90.80
2018-01-19T06:35:43.906Z,90.80
2018-01-19T06:38:11.480Z,90.90
2018-01-19T06:40:39.052Z,90.70
2018-01-19T06:43:07.389Z,91.00
2018-01-19T06:45:36.591Z,90.80
2018-01-19T06:48:04.920Z,91.00
2018-01-19T06:50:32.687Z,91.00
2018-01-19T06:53:00.272Z,90.60
2018-01-19T06:55:27.797Z,90.70
2018-01-19T06:57:56.817Z,90.40
2018-01-19T07:00:24.441Z,90.40
2018-01-19T07:02:52.016Z,90.70
2018-01-19T07:05:19.485Z,90.30
2018-01-19T07:07:47.453Z,90.20
2018-01-19T07:10:14.979Z,90.30
2018-01-19T07:12:42.536Z,90.30
2018-01-19T07:15:10.954Z,90.40
2018-01-19T07:17:38.520Z,90.40
2018-01-19T07:20:06.084Z,90.30
2018-01-19T07:22:34.445Z,89.70
2018-01-19T07:25:02.009Z,89.70
2018-01-19T07:27:30.308Z,89.60
2018-01-19T07:29:58.071Z,89.60
2018-01-19T07:32:25.599Z,89.30
2018-01-19T07:34:53.144Z,89.40
2018-01-19T07:37:20.882Z,88.70
2018-01-19T07:39:48.353Z,88.10
2018-01-19T07:42:15.874Z,88.50
2018-01-19T07:44:43.480Z,88.40
2018-01-19T07:47:11.810Z,88.10
2018-01-19T07:49:39.373Z,88.10
2018-01-19T07:52:07.706Z,88.20
2018-01-19T07:54:35.268Z,88.20
2018-01-19T07:57:02.837Z,87.20
2018-01-19T07:59:31.367Z,87.60
2018-01-19T08:01:58.901Z,87.60
2018-01-19T08:04:26.447Z,87.70
2018-01-19T08:06:53.999Z,87.10
2018-01-19T08:09:21.531Z,87.20
2018-01-19T08:11:48.996Z,86.80
2018-01-19T08:15:54.241Z,86.20
2018-01-19T08:22:16.764Z,85.20
2018-01-19T08:24:44.369Z,81.00
2018-01-19T08:27:11.891Z,79.60
2018-01-19T08:29:40.248Z,80.70
2018-01-19T08:32:08.539Z,81.60
2018-01-19T08:34:36.106Z,81.50
2018-01-19T08:37:03.684Z,82.70
2018-01-19T08:39:32.018Z,83.20
2018-01-19T08:41:59.584Z,83.10
2018-01-19T08:44:27.900Z,83.50
2018-01-19T08:46:55.460Z,83.60
2018-01-19T08:49:23.023Z,84.00
2018-01-19T08:51:50.645Z,82.80
2018-01-19T08:54:18.234Z,83.30
2018-01-19T08:56:45.780Z,83.50
2018-01-19T08:59:13.535Z,82.60
2018-01-19T09:01:41.845Z,82.60
2018-01-19T09:04:09.415Z,82.60
2018-01-19T09:06:37.012Z,82.30
2018-01-19T09:09:04.547Z,83.00
2018-01-19T09:11:32.134Z,83.60
2018-01-19T09:14:00.295Z,82.70
2018-01-19T09:16:27.827Z,82.80
2018-01-19T09:18:55.387Z,81.60
2018-01-19T09:21:22.985Z,81.10
2018-01-19T09:23:50.523Z,81.30
2018-01-19T09:26:18.082Z,81.30
2018-01-19T09:28:45.704Z,82.20
2018-01-19T09:31:14.079Z,81.70
2018-01-19T09:33:41.607Z,81.70
2018-01-19T09:36:09.968Z,80.00
2018-01-19T09:38:38.308Z,79.70
2018-01-19T09:41:05.876Z,79.70
2018-01-19T09:43:34.244Z,77.10
2018-01-19T09:46:02.477Z,79.00
2018-01-19T09:48:29.998Z,79.00
2018-01-19T09:50:57.569Z,78.30
2018-01-19T09:53:25.867Z,77.60
2018-01-19T09:55:53.432Z,77.30
2018-01-19T09:58:21.444Z,77.20
2018-01-19T10:00:49.780Z,77.80
2018-01-19T10:03:17.347Z,77.80
2018-01-19T10:05:45.704Z,77.80
2018-01-19T10:08:14.036Z,76.80
2018-01-19T10:10:41.567Z,76.80
2018-01-19T10:13:09.107Z,77.50
2018-01-19T10:15:36.568Z,78.10
2018-01-19T10:18:04.128Z,78.20
2018-01-19T10:20:32.808Z,77.50
2018-01-19T10:23:01.149Z,76.40
2018-01-19T10:25:28.722Z,76.40
2018-01-19T10:27:57.793Z,81.60
2018-01-19T10:30:26.105Z,81.40
2018-01-19T10:32:53.788Z,81.40
2018-01-19T10:35:21.384Z,82.10
2018-01-19T10:37:48.890Z,80.70
2018-01-19T10:40:16.443Z,82.50
2018-01-19T10:42:45.072Z,77.60
2018-01-19T10:45:12.631Z,77.50
2018-01-19T10:47:41.672Z,71.30
2018-01-19T10:50:09.359Z,71.30
2018-01-19T10:52:36.860Z,72.60
2018-01-19T10:55:04.347Z,69.00
2018-01-19T10:57:34.236Z,64.70
2018-01-19T11:00:01.752Z,64.70
2018-01-19T11:02:29.213Z,64.10
2018-01-19T11:04:56.959Z,62.60
2018-01-19T11:07:24.458Z,62.20
2018-01-19T11:09:51.958Z,60.80
2018-01-19T11:12:19.446Z,59.30
2018-01-19T11:14:46.922Z,58.20
2018-01-19T11:17:14.478Z,56.60
2018-01-19T11:19:42.102Z,55.70
2018-01-19T11:22:09.574Z,53.90
2018-01-19T11:24:37.848Z,53.70
2018-01-19T11:27:05.399Z,53.70
2018-01-19T11:29:33.673Z,51.00
2018-01-19T11:32:01.182Z,50.90
2018-01-19T11:34:29.518Z,52.10
2018-01-19T11:36:57.058Z,50.90
2018-01-19T11:39:24.575Z,51.90
2018-01-19T11:41:52.351Z,54.30
2018-01-19T11:44:19.818Z,54.90
2018-01-19T11:46:47.359Z,53.00
2018-01-19T11:49:14.861Z,53.50
2018-01-19T11:51:42.404Z,50.60
2018-01-19T11:54:09.939Z,50.80
2018-01-19T11:56:37.477Z,47.50
2018-01-19T11:59:04.950Z,44.40
2018-01-19T12:01:32.475Z,44.90
2018-01-19T12:03:59.973Z,45.20
2018-01-19T12:06:27.509Z,45.10
2018-01-19T12:08:55.014Z,46.20
2018-01-19T12:11:22.541Z,45.10
2018-01-19T12:13:50.014Z,45.30
2018-01-19T12:16:17.652Z,43.40
2018-01-19T12:18:45.154Z,43.40
2018-01-19T12:21:13.454Z,46.60
2018-01-19T12:23:40.965Z,46.50
2018-01-19T12:26:08.525Z,47.70
2018-01-19T12:28:36.050Z,48.40
2018-01-19T12:31:04.345Z,48.30
2018-01-19T12:33:31.813Z,48.30
2018-01-19T12:36:00.110Z,47.20
2018-01-19T12:38:27.626Z,47.20
2018-01-19T12:40:55.101Z,46.70
2018-01-19T12:43:22.663Z,47.10
2018-01-19T12:45:50.133Z,46.60
2018-01-19T12:48:17.638Z,46.40
2018-01-19T12:50:45.327Z,45.60
2018-01-19T12:53:12.797Z,45.20
2018-01-19T12:55:41.062Z,44.00
2018-01-19T12:58:09.325Z,42.00
2018-01-19T13:00:37.564Z,41.70
2018-01-19T13:03:05.204Z,41.70
2018-01-19T13:05:32.730Z,40.80
2018-01-19T13:08:00.226Z,41.70
2018-01-19T13:10:27.699Z,42.70
2018-01-19T13:12:55.195Z,45.20
2018-01-19T13:15:23.504Z,48.70
2018-01-19T13:17:51.007Z,48.60
2018-01-19T13:20:19.309Z,50.80
2018-01-19T13:22:46.811Z,50.80
2018-01-19T13:25:15.148Z,52.20
2018-01-19T13:27:43.439Z,53.40
2018-01-19T13:30:11.726Z,54.70
2018-01-19T13:32:39.279Z,54.70
2018-01-19T13:35:06.750Z,57.00
2018-01-19T13:37:34.250Z,56.40
2018-01-19T13:40:01.775Z,57.60
2018-01-19T13:42:29.267Z,57.80
2018-01-19T13:44:56.761Z,59.50
2018-01-19T13:47:24.277Z,58.50
2018-01-19T13:49:51.779Z,59.20
2018-01-19T13:52:19.311Z,60.00
2018-01-19T13:54:47.014Z,59.30
2018-01-19T13:57:15.311Z,59.90
2018-01-19T13:59:42.810Z,59.90
2018-01-19T14:02:10.343Z,59.80
2018-01-19T14:04:37.838Z,61.50
2018-01-19T14:07:05.372Z,61.10
2018-01-19T14:09:32.862Z,60.70
2018-01-19T14:31:32.634Z,65.30
2018-01-19T14:34:00.102Z,66.70
2018-01-19T14:36:28.375Z,67.90
2018-01-19T14:38:55.932Z,68.60
2018-01-19T14:41:24.195Z,70.40
2018-01-19T14:43:52.472Z,70.30
2018-01-19T14:46:20.734Z,70.10
2018-01-19T14:48:48.994Z,71.20
2018-01-19T14:51:17.262Z,71.00
2018-01-19T14:53:45.069Z,70.90
2018-01-19T14:56:12.571Z,72.10
2018-01-19T14:58:40.066Z,73.20
2018-01-19T15:01:07.695Z,75.20
2018-01-19T15:03:35.190Z,74.10
2018-01-19T15:06:02.690Z,75.30
2018-01-19T15:08:30.174Z,76.40
2018-01-19T15:10:57.686Z,76.30
2018-01-19T15:13:25.183Z,76.70
2018-01-19T15:15:52.918Z,76.80
2018-01-19T15:18:20.420Z,76.80
2018-01-19T15:20:47.927Z,77.70
2018-01-19T15:23:15.468Z,77.70
2018-01-19T15:25:42.995Z,77.80
2018-01-19T15:28:10.490Z,78.80
2018-01-19T15:30:38.055Z,79.70
2018-01-19T15:33:07.087Z,79.10
2018-01-19T15:35:34.545Z,79.10
2018-01-19T15:38:02.049Z,79.10
2018-01-19T15:40:29.546Z,79.50
2018-01-19T15:42:57.824Z,81.10
2018-01-19T15:45:25.293Z,81.00
2018-01-19T15:47:52.786Z,81.90
2018-01-19T15:50:21.058Z,82.70
2018-01-19T15:52:49.430Z,82.60
2018-01-19T15:55:17.725Z,82.40
2018-01-19T15:57:45.239Z,82.40
2018-01-19T16:00:12.914Z,82.60
2018-01-19T16:02:40.415Z,82.40
2018-01-19T16:05:08.719Z,81.40
2018-01-19T16:07:36.483Z,81.40
2018-01-19T16:10:03.958Z,81.30
2018-01-19T16:12:32.256Z,83.80
2018-01-19T16:14:59.756Z,83.80
2018-01-19T16:17:28.010Z,85.10
2018-01-19T16:19:55.516Z,84.90
2018-01-19T16:22:23.276Z,84.70
2018-01-19T16:24:50.773Z,85.90
2018-01-19T16:27:18.279Z,85.40
2018-01-19T16:29:45.813Z,86.60
2018-01-19T16:32:13.339Z,86.80
2018-01-19T16:34:40.863Z,87.80
2018-01-19T16:37:08.518Z,87.90
2018-01-19T16:39:36.030Z,88.20
2018-01-19T16:42:03.547Z,89.00
2018-01-19T16:44:31.221Z,88.10
2018-01-19T16:46:58.694Z,90.20
2018-01-19T16:49:26.216Z,88.40
2018-01-19T16:51:53.697Z,88.40
2018-01-19T16:54:21.243Z,87.30
2018-01-19T16:56:48.771Z,86.80
2018-01-19T16:59:16.391Z,85.40
2018-01-19T17:01:43.865Z,85.20
2018-01-19T17:04:11.325Z,82.80
2018-01-19T17:06:38.818Z,81.70
2018-01-19T17:09:06.356Z,81.10
2018-01-19T17:11:33.929Z,81.40
2018-01-19T17:14:01.696Z,79.40
2018-01-19T17:16:29.191Z,81.20
2018-01-19T17:18:56.690Z,81.30
2018-01-19T17:21:24.318Z,81.40
2018-01-19T17:23:52.550Z,81.30
2018-01-19T17:26:20.059Z,81.20
2018-01-19T17:28:47.620Z,80.90
2018-01-19T17:31:16.045Z,82.60
2018-01-19T17:33:43.595Z,81.10
2018-01-19T17:36:11.243Z,82.80
2018-01-19T17:38:38.772Z,83.10
2018-01-19T17:41:06.250Z,83.60
2018-01-19T17:43:34.826Z,84.30
2018-01-19T17:46:02.322Z,84.30
2018-01-19T17:48:29.823Z,85.10
2018-01-19T17:50:57.427Z,83.70
2018-01-19T17:53:24.930Z,84.50
2018-01-19T17:55:52.417Z,83.80
2018-01-19T17:58:19.984Z,83.90
2018-01-19T18:00:47.455Z,83.90
2018-01-19T18:03:14.988Z,83.90
2018-01-19T18:05:42.551Z,84.00
2018-01-19T18:08:10.079Z,84.20
2018-01-19T18:10:37.570Z,83.80
2018-01-19T18:13:05.275Z,83.20
2018-01-19T18:15:32.789Z,83.70
2018-01-19T18:18:00.279Z,84.80
2018-01-19T18:20:28.053Z,85.20
2018-01-19T18:22:55.521Z,84.20
2018-01-19T18:25:24.814Z,83.90
2018-01-19T18:27:52.519Z,84.00
2018-01-19T18:30:20.026Z,85.00
2018-01-19T18:32:47.580Z,85.20
2018-01-19T18:35:15.224Z,85.80
2018-01-19T18:37:42.909Z,85.60
2018-01-19T18:40:10.408Z,85.70
2018-01-19T18:42:38.223Z,86.00
2018-01-19T18:45:05.742Z,85.80
2018-01-19T18:47:33.275Z,85.60
2018-01-19T18:50:00.822Z,85.80
2018-01-19T18:52:28.351Z,85.90
2018-01-19T18:54:55.842Z,86.00
2018-01-19T18:57:23.606Z,85.90
2018-01-19T18:59:51.090Z,86.40
2018-01-19T19:02:18.557Z,86.70
2018-01-19T19:04:47.196Z,84.20
2018-01-19T19:07:14.666Z,84.20
2018-01-19T19:09:42.905Z,81.90
2018-01-19T19:12:10.463Z,81.90
2018-01-19T19:14:37.988Z,81.70
2018-01-19T19:17:05.520Z,80.90
2018-01-19T19:19:33.163Z,79.30
2018-01-19T19:22:00.683Z,79.40
2018-01-19T19:24:28.238Z,78.00
2018-01-19T19:26:56.800Z,77.50
2018-01-19T19:29:24.298Z,77.70
2018-01-19T19:31:52.562Z,78.70
2018-01-19T19:34:20.834Z,77.10
2018-01-19T19:36:49.128Z,77.00
2018-01-19T19:39:16.797Z,77.00
2018-01-19T19:41:44.288Z,76.10
2018-01-19T19:44:11.757Z,77.20
2018-01-19T19:46:39.284Z,77.70
2018-01-19T19:49:06.782Z,76.80
2018-01-19T19:51:34.289Z,77.20
2018-01-19T19:54:01.811Z,76.90
2018-01-19T19:56:29.527Z,77.00
2018-01-19T19:58:57.016Z,77.30
2018-01-19T20:01:24.491Z,77.70
2018-01-19T20:03:52.074Z,76.90
2018-01-19T20:06:20.330Z,78.70
2018-01-19T20:08:48.603Z,78.00
2018-01-19T20:11:16.334Z,78.00
2018-01-19T20:13:44.598Z,77.70
2018-01-19T20:16:12.871Z,76.30
2018-01-19T20:18:40.449Z,76.30
2018-01-19T20:21:07.913Z,76.10
2018-01-19T20:23:35.380Z,76.10
2018-01-19T20:26:03.637Z,75.90
2018-01-19T20:28:31.914Z,76.40
2018-01-19T20:30:59.434Z,76.40
2018-01-19T20:33:27.718Z,77.50
2018-01-19T20:35:55.279Z,77.20
2018-01-19T20:38:22.815Z,80.70
2018-01-19T20:40:50.517Z,82.60
2018-01-19T20:43:18.043Z,85.10
2018-01-19T20:45:45.538Z,87.30
2018-01-19T20:48:13.320Z,89.20
2018-01-19T20:50:40.820Z,90.70
2018-01-19T20:53:09.095Z,90.80
2018-01-19T20:55:36.630Z,90.70
2018-01-19T20:58:04.164Z,91.20
2018-01-19T21:00:32.469Z,91.30
2018-01-19T21:03:00.058Z,91.30
2018-01-19T21:05:27.489Z,91.70
2018-01-19T21:07:55.017Z,91.50
2018-01-19T21:10:22.627Z,90.80
2018-01-19T21:12:50.128Z,91.60
2018-01-19T21:15:18.439Z,91.20
2018-01-19T21:17:45.999Z,91.20
2018-01-19T21:20:13.466Z,91.50
2018-01-19T21:22:40.933Z,90.60
2018-01-19T21:25:09.252Z,90.50
2018-01-19T21:27:36.754Z,90.50
2018-01-19T21:30:04.259Z,90.90
2018-01-19T21:32:31.822Z,90.70
2018-01-19T21:35:00.094Z,91.00
2018-01-19T21:37:27.639Z,90.90
2018-01-19T21:39:55.399Z,90.20
2018-01-19T21:42:22.865Z,87.90
2018-01-19T21:44:50.333Z,88.50
2018-01-19T21:47:17.950Z,87.30
2018-01-19T21:49:45.483Z,86.70
2018-01-19T21:52:12.995Z,86.80
2018-01-19T21:54:40.573Z,86.90
2018-01-19T21:57:08.098Z,87.70
2018-01-19T21:59:35.616Z,85.20
2018-01-19T22:02:04.115Z,85.20
2018-01-19T22:04:31.611Z,85.10
2018-01-19T22:06:59.107Z,84.50
2018-01-19T22:09:26.694Z,85.50
2018-01-19T22:11:54.194Z,85.20
2018-01-19T22:14:21.690Z,82.90
2018-01-19T22:16:50.067Z,82.10
2018-01-19T22:19:18.306Z,83.70
2018-01-19T22:21:46.528Z,83.70
2018-01-19T22:24:14.087Z,81.20
2018-01-19T22:26:41.561Z,82.30
2018-01-19T22:29:09.814Z,81.60
2018-01-19T22:31:38.327Z,81.20
2018-01-19T22:34:05.848Z,81.20
2018-01-19T22:36:33.311Z,81.00
2018-01-19T22:39:00.867Z,81.10
2018-01-19T22:41:28.367Z,80.50
2018-01-19T22:43:56.634Z,78.60
2018-01-19T22:46:25.099Z,79.00
2018-01-19T22:48:52.598Z,78.90
2018-01-19T22:51:20.073Z,78.90
2018-01-19T22:53:48.442Z,79.40
2018-01-19T22:56:16.702Z,79.20
2018-01-19T22:58:44.966Z,77.80
2018-01-19T23:01:12.495Z,77.90
2018-01-19T23:03:39.990Z,78.30
2018-01-19T23:06:07.489Z,77.50
2018-01-19T23:08:35.055Z,77.10
2018-01-19T23:11:02.593Z,77.20
2018-01-19T23:13:36.039Z,77.70
2018-01-19T23:16:03.502Z,77.50
2018-01-19T23:18:31.798Z,78.60
2018-01-19T23:20:59.314Z,78.60
2018-01-19T23:23:26.852Z,79.20
2018-01-19T23:25:54.321Z,79.00
2018-01-19T23:28:22.172Z,79.30
2018-01-19T23:30:49.675Z,79.70
2018-01-19T23:33:17.967Z,80.50
2018-01-19T23:35:45.465Z,80.40
2018-01-19T23:38:12.991Z,79.90
2018-01-19T23:40:40.496Z,81.70
2018-01-19T23:43:08.152Z,80.50
2018-01-19T23:45:35.680Z,80.50
2018-01-19T23:48:03.178Z,80.20
2018-01-19T23:50:30.842Z,80.80
2018-01-19T23:52:59.073Z,81.00
2018-01-19T23:55:26.541Z,80.90
2018-01-19T23:57:55.049Z,81.30
